Time;durP1;ratioP1;P1;durP2;ratioP2;P2;SDS_P1;SDS_P2;PMS_P1;PMS_P2;Temp;Humidity;BMP_temperature;BMP_pressure;BME280_temperature;BME280_humidity;BME280_pressure;Samples;Min_cycle;Max_cycle;Signal;HPM_P1;HPM_P2
2024/01/12 00:00:25;;;;;;;;;;;1.50;99.90;;;;;;4968425;28;19925;-72
2024/01/12 00:02:51;;;;;;;;;;;1.60;99.90;;;;;;5014363;28;19925;-72
2024/01/12 00:05:17;;;;;;;;;;;1.60;99.90;;;;;;4974534;28;19924;-72
2024/01/12 00:07:44;;;;;;;;;;;1.60;99.90;;;;;;4979733;28;20543;-72
2024/01/12 00:10:10;;;;;;;;;;;1.60;99.90;;;;;;4965661;28;19928;-71
2024/01/12 00:12:36;;;;;;;;;;;1.60;99.90;;;;;;4999567;28;20455;-70
2024/01/12 00:15:03;;;;;;;;;;;1.60;99.90;;;;;;4961947;28;19931;-70
2024/01/12 00:17:29;;;;;;;;;;;1.60;99.90;;;;;;4989338;28;19936;-71
2024/01/12 00:19:54;;;;;;;;;;;1.60;99.90;;;;;;4975811;28;19932;-72
2024/01/12 00:22:20;;;;;;;;;;;1.60;99.90;;;;;;4971144;28;19933;-72
2024/01/12 00:24:46;;;;;;;;;;;1.60;99.90;;;;;;4957519;28;19924;-72
2024/01/12 00:27:12;;;;;;;;;;;1.60;99.90;;;;;;5000309;28;19928;-72
2024/01/12 00:29:38;;;;;;;;;;;1.60;99.90;;;;;;4986428;28;19925;-72
2024/01/12 00:32:07;;;;;;;;;;;1.60;99.90;;;;;;4981318;28;20299;-72
2024/01/12 00:34:33;;;;;;;;;;;1.70;99.90;;;;;;4963267;28;20062;-72
2024/01/12 00:36:59;;;;;;;;;;;1.70;99.90;;;;;;4988748;28;20697;-72
2024/01/12 00:39:25;;;;;;;;;;;1.70;99.90;;;;;;4987651;28;19924;-71
2024/01/12 00:41:52;;;;;;;;;;;1.80;99.90;;;;;;5001617;28;20199;-71
2024/01/12 00:44:18;;;;;;;;;;;1.80;99.90;;;;;;4959348;28;19925;-71
2024/01/12 00:46:44;;;;;;;;;;;1.80;99.90;;;;;;4990090;28;19925;-71
2024/01/12 00:49:11;;;;;;;;;;;1.90;99.90;;;;;;4959021;28;19940;-72
2024/01/12 00:51:37;;;;;;;;;;;1.90;99.90;;;;;;4995008;28;19932;-71
2024/01/12 00:54:03;;;;;;;;;;;2.00;99.90;;;;;;4954024;28;19994;-72
2024/01/12 00:56:29;;;;;;;;;;;2.00;99.90;;;;;;4993384;28;19932;-71
2024/01/12 00:58:55;;;;;;;;;;;2.10;99.90;;;;;;4987889;28;19925;-72
2024/01/12 01:01:22;;;;;;;;;;;2.10;99.90;;;;;;4999475;28;19929;-70
2024/01/12 01:03:48;;;;;;;;;;;2.10;99.90;;;;;;4954334;28;19929;-70
2024/01/12 01:06:14;;;;;;;;;;;2.10;99.90;;;;;;5013074;28;19928;-72
2024/01/12 01:08:40;;;;;;;;;;;2.10;99.90;;;;;;4957420;28;19936;-71
2024/01/12 01:11:06;;;;;;;;;;;2.10;99.90;;;;;;5014392;28;19925;-72
2024/01/12 01:13:35;;;;;;;;;;;2.10;99.90;;;;;;4986030;28;19924;-71
2024/01/12 01:16:02;;;;;;;;;;;2.10;99.90;;;;;;4982530;28;19955;-72
2024/01/12 01:18:30;;;;;;;;;;;2.10;99.90;;;;;;4992226;28;19936;-72
2024/01/12 01:20:59;;;;;;;;;;;2.10;99.90;;;;;;4987351;28;19940;-72
2024/01/12 01:23:25;;;;;;;;;;;2.10;99.90;;;;;;4981277;28;21066;-72
2024/01/12 01:25:51;;;;;;;;;;;2.20;99.90;;;;;;4963301;28;19929;-74
2024/01/12 01:28:17;;;;;;;;;;;2.20;99.90;;;;;;4980112;28;19925;-72
2024/01/12 01:30:43;;;;;;;;;;;2.20;99.90;;;;;;4969682;28;19928;-72
2024/01/12 01:33:08;;;;;;;;;;;2.20;99.90;;;;;;4982357;28;19925;-72
2024/01/12 01:35:35;;;;;;;;;;;2.20;99.90;;;;;;4986097;28;19959;-71
2024/01/12 01:38:01;;;;;;;;;;;2.20;99.90;;;;;;4996590;28;20605;-71
2024/01/12 01:40:27;;;;;;;;;;;2.20;99.90;;;;;;4982617;28;19967;-72
2024/01/12 01:42:52;;;;;;;;;;;2.20;99.90;;;;;;5001229;28;19929;-73
2024/01/12 01:45:18;;;;;;;;;;;2.30;99.90;;;;;;4982841;28;19956;-71
2024/01/12 01:47:45;;;;;;;;;;;2.30;99.90;;;;;;5016406;28;19925;-73
2024/01/12 01:50:12;;;;;;;;;;;2.30;99.90;;;;;;4969720;28;19924;-73
2024/01/12 01:52:39;;;;;;;;;;;2.30;99.90;;;;;;4967773;28;19925;-72
2024/01/12 01:55:05;;;;;;;;;;;2.40;99.90;;;;;;4972832;28;19925;-73
2024/01/12 01:57:32;;;;;;;;;;;2.40;99.90;;;;;;5007157;28;19940;-71
2024/01/12 01:59:58;;;;;;;;;;;2.40;99.90;;;;;;4964150;28;19924;-71
2024/01/12 02:02:24;;;;;;;;;;;2.40;99.90;;;;;;5034300;28;19933;-71
2024/01/12 02:04:52;;;;;;;;;;;2.40;99.90;;;;;;4990859;28;19931;-71
2024/01/12 02:07:17;;;;;;;;;;;2.40;99.90;;;;;;4996637;28;19925;-72
2024/01/12 02:09:44;;;;;;;;;;;2.40;99.90;;;;;;4962786;28;21043;-72
2024/01/12 02:12:10;;;;;;;;;;;2.40;99.90;;;;;;4987657;28;20410;-73
2024/01/12 02:14:35;;;;;;;;;;;2.30;99.90;;;;;;4960989;28;19928;-72
2024/01/12 02:17:02;;;;;;;;;;;2.40;99.90;;;;;;4987133;28;19924;-73
2024/01/12 02:19:27;;;;;;;;;;;2.40;99.90;;;;;;4963541;28;19924;-72
2024/01/12 02:21:53;;;;;;;;;;;2.40;99.90;;;;;;4989132;28;19929;-72
2024/01/12 02:24:19;;;;;;;;;;;2.40;99.90;;;;;;4960577;28;20535;-73
2024/01/12 02:26:45;;;;;;;;;;;2.40;99.90;;;;;;5005862;28;19939;-72
2024/01/12 02:29:11;;;;;;;;;;;2.30;99.90;;;;;;4977820;28;20583;-76
2024/01/12 02:31:38;;;;;;;;;;;2.30;99.90;;;;;;5013411;28;19960;-76
2024/01/12 02:34:04;;;;;;;;;;;2.30;99.90;;;;;;4974250;28;19925;-77
2024/01/12 02:36:30;;;;;;;;;;;2.30;99.90;;;;;;5015959;28;19939;-77
2024/01/12 02:38:56;;;;;;;;;;;2.20;99.90;;;;;;4956601;28;20124;-76
2024/01/12 02:41:22;;;;;;;;;;;2.20;99.90;;;;;;4993785;28;19987;-76
2024/01/12 02:43:48;;;;;;;;;;;2.20;99.90;;;;;;4957766;28;20959;-77
2024/01/12 02:46:14;;;;;;;;;;;2.20;99.90;;;;;;5006684;28;19932;-77
2024/01/12 02:48:40;;;;;;;;;;;2.20;99.90;;;;;;4976144;28;19943;-77
2024/01/12 02:51:06;;;;;;;;;;;2.20;99.90;;;;;;4997930;28;20026;-77
2024/01/12 02:53:32;;;;;;;;;;;2.20;99.90;;;;;;4980319;28;19951;-77
2024/01/12 02:55:58;;;;;;;;;;;2.30;99.90;;;;;;5000144;28;20027;-77
2024/01/12 02:58:24;;;;;;;;;;;2.30;99.90;;;;;;4991136;28;19928;-77
2024/01/12 03:00:50;;;;;;;;;;;2.30;99.90;;;;;;4959249;28;19952;-78
2024/01/12 03:03:16;;;;;;;;;;;2.30;99.90;;;;;;4989618;28;19928;-77
2024/01/12 03:05:42;;;;;;;;;;;2.30;99.90;;;;;;4965903;28;20584;-78
2024/01/12 03:08:08;;;;;;;;;;;2.30;99.90;;;;;;5018519;28;19931;-76
2024/01/12 03:10:34;;;;;;;;;;;2.20;99.90;;;;;;4982976;28;20558;-77
2024/01/12 03:13:03;;;;;;;;;;;2.30;99.90;;;;;;5000646;28;21943;-78
2024/01/12 03:15:29;;;;;;;;;;;2.30;99.90;;;;;;4967642;28;19925;-76
2024/01/12 03:17:58;;;;;;;;;;;2.20;99.90;;;;;;5018261;28;20338;-77
2024/01/12 03:20:24;;;;;;;;;;;2.20;99.90;;;;;;4943000;28;19929;-76
2024/01/12 03:22:51;;;;;;;;;;;2.20;99.90;;;;;;4970865;28;20394;-76
2024/01/12 03:25:17;;;;;;;;;;;2.20;99.90;;;;;;4979691;28;20000;-76
2024/01/12 03:27:43;;;;;;;;;;;2.20;99.90;;;;;;5002544;28;19929;-77
2024/01/12 03:30:09;;;;;;;;;;;2.20;99.90;;;;;;4975492;28;20035;-78
2024/01/12 03:32:35;;;;;;;;;;;2.20;99.90;;;;;;5003988;28;19929;-77
2024/01/12 03:35:03;;;;;;;;;;;2.10;99.90;;;;;;4985217;28;19924;-77
2024/01/12 03:37:29;;;;;;;;;;;2.10;99.90;;;;;;5004806;28;19925;-77
2024/01/12 03:39:54;;;;;;;;;;;2.00;99.90;;;;;;4965501;28;20455;-77
2024/01/12 03:42:20;;;;;;;;;;;1.90;99.90;;;;;;4987497;28;19928;-76
2024/01/12 03:44:46;;;;;;;;;;;1.70;99.90;;;;;;4954801;28;19929;-77
2024/01/12 03:47:12;;;;;;;;;;;1.60;99.90;;;;;;4997213;28;19925;-78
2024/01/12 03:49:38;;;;;;;;;;;1.60;99.90;;;;;;4939536;28;20538;-78
2024/01/12 03:52:05;;;;;;;;;;;1.50;99.90;;;;;;4965530;28;19935;-77
2024/01/12 03:54:31;;;;;;;;;;;1.40;99.90;;;;;;4980498;28;20101;-76
2024/01/12 03:56:57;;;;;;;;;;;1.30;99.90;;;;;;4970928;28;19925;-77
2024/01/12 03:59:24;;;;;;;;;;;1.20;99.90;;;;;;4974014;28;19925;-76
2024/01/12 04:01:50;;;;;;;;;;;1.20;99.90;;;;;;5003165;28;20384;-76
2024/01/12 04:04:16;;;;;;;;;;;1.10;99.90;;;;;;4983051;28;21036;-75
2024/01/12 04:06:42;;;;;;;;;;;1.10;99.90;;;;;;5005442;28;19941;-73
2024/01/12 04:09:12;;;;;;;;;;;1.10;99.90;;;;;;4956615;28;19941;-76
2024/01/12 04:11:38;;;;;;;;;;;1.10;99.90;;;;;;4997211;28;20970;-74
2024/01/12 04:14:04;;;;;;;;;;;1.20;99.90;;;;;;4961923;28;21152;-75
2024/01/12 04:16:30;;;;;;;;;;;1.20;99.90;;;;;;5013375;28;20048;-75
2024/01/12 04:18:56;;;;;;;;;;;1.20;99.90;;;;;;4955678;28;20408;-75
2024/01/12 04:21:22;;;;;;;;;;;1.30;99.90;;;;;;4968582;28;19929;-76
2024/01/12 04:23:48;;;;;;;;;;;1.30;99.90;;;;;;4974514;28;19928;-75
2024/01/12 04:26:14;;;;;;;;;;;1.30;99.90;;;;;;4991144;28;21222;-77
2024/01/12 04:28:40;;;;;;;;;;;1.40;99.90;;;;;;4978510;28;19931;-76
2024/01/12 04:31:06;;;;;;;;;;;1.40;99.90;;;;;;5001983;28;19925;-77
2024/01/12 04:33:33;;;;;;;;;;;1.40;99.90;;;;;;4979863;28;19932;-76
2024/01/12 04:35:59;;;;;;;;;;;1.40;99.90;;;;;;4999363;28;19925;-77
2024/01/12 04:38:26;;;;;;;;;;;1.40;99.90;;;;;;4988324;28;19924;-76
2024/01/12 04:40:52;;;;;;;;;;;1.40;99.90;;;;;;4969040;28;19929;-77
2024/01/12 04:43:18;;;;;;;;;;;1.40;99.90;;;;;;4984446;28;21192;-76
2024/01/12 04:45:44;;;;;;;;;;;1.40;99.90;;;;;;4950385;28;19925;-77
2024/01/12 04:48:10;;;;;;;;;;;1.50;99.90;;;;;;4982598;28;19925;-77
2024/01/12 04:50:36;;;;;;;;;;;1.50;99.90;;;;;;4974556;28;20627;-77
2024/01/12 04:53:01;;;;;;;;;;;1.50;99.90;;;;;;5004014;28;19929;-76
2024/01/12 04:55:28;;;;;;;;;;;1.50;99.90;;;;;;4983120;28;19969;-76
2024/01/12 04:57:53;;;;;;;;;;;1.50;99.90;;;;;;5007084;28;20450;-77
2024/01/12 05:00:20;;;;;;;;;;;1.50;99.90;;;;;;4961550;28;19929;-76
2024/01/12 05:02:46;;;;;;;;;;;1.50;99.90;;;;;;4987729;28;19929;-77
2024/01/12 05:05:11;;;;;;;;;;;1.50;99.90;;;;;;4975158;28;19939;-76
2024/01/12 05:07:37;;;;;;;;;;;1.50;99.90;;;;;;5001445;28;19924;-76
2024/01/12 05:10:04;;;;;;;;;;;1.50;99.90;;;;;;4977494;28;19932;-76
2024/01/12 05:12:30;;;;;;;;;;;1.50;99.90;;;;;;5022149;28;19925;-76
2024/01/12 05:14:56;;;;;;;;;;;1.60;99.90;;;;;;4988836;28;21219;-75
2024/01/12 05:17:22;;;;;;;;;;;1.50;99.90;;;;;;4993101;28;19954;-76
2024/01/12 05:19:48;;;;;;;;;;;1.50;99.90;;;;;;4965146;28;19925;-77
2024/01/12 05:22:14;;;;;;;;;;;1.60;99.90;;;;;;4987581;28;19929;-76
2024/01/12 05:24:40;;;;;;;;;;;1.60;99.90;;;;;;4966837;28;20039;-76
2024/01/12 05:27:07;;;;;;;;;;;1.70;99.90;;;;;;5011793;28;19929;-77
2024/01/12 05:29:33;;;;;;;;;;;1.70;99.90;;;;;;4947700;28;20610;-76
2024/01/12 05:32:02;;;;;;;;;;;1.80;99.90;;;;;;5005961;28;20945;-76
2024/01/12 05:34:28;;;;;;;;;;;1.80;99.90;;;;;;4983059;28;20760;-77
2024/01/12 05:36:54;;;;;;;;;;;1.80;99.90;;;;;;4998911;28;19935;-77
2024/01/12 05:39:20;;;;;;;;;;;1.80;99.90;;;;;;4974436;28;20441;-77
2024/01/12 05:41:46;;;;;;;;;;;1.80;99.90;;;;;;5017515;28;19928;-76
2024/01/12 05:44:12;;;;;;;;;;;1.80;99.90;;;;;;4942776;28;19995;-76
2024/01/12 05:46:40;;;;;;;;;;;1.80;99.90;;;;;;4984035;28;20021;-76
2024/01/12 05:49:06;;;;;;;;;;;1.80;99.90;;;;;;4984327;28;19931;-76
2024/01/12 05:51:32;;;;;;;;;;;1.80;99.90;;;;;;4973453;28;19952;-76
2024/01/12 05:53:58;;;;;;;;;;;1.80;99.90;;;;;;4957071;28;19924;-76
2024/01/12 05:56:24;;;;;;;;;;;1.80;99.90;;;;;;5010726;28;19928;-76
2024/01/12 05:58:50;;;;;;;;;;;1.80;99.90;;;;;;4954305;28;19933;-76
2024/01/12 06:01:17;;;;;;;;;;;1.80;99.90;;;;;;4996498;28;19925;-77
2024/01/12 06:03:44;;;;;;;;;;;1.80;99.90;;;;;;4972906;28;19936;-75
2024/01/12 06:06:10;;;;;;;;;;;1.80;99.90;;;;;;4982508;28;20517;-76
2024/01/12 06:08:36;;;;;;;;;;;1.80;99.90;;;;;;4953027;28;19924;-76
2024/01/12 06:11:03;;;;;;;;;;;1.80;99.90;;;;;;4996494;28;21043;-76
2024/01/12 06:13:29;;;;;;;;;;;1.90;99.90;;;;;;4971272;28;19926;-77
2024/01/12 06:15:55;;;;;;;;;;;1.90;99.90;;;;;;4992319;28;20521;-77
2024/01/12 06:18:21;;;;;;;;;;;1.90;99.90;;;;;;5002361;28;19931;-77
2024/01/12 06:20:47;;;;;;;;;;;1.90;99.90;;;;;;4985693;28;19983;-77
2024/01/12 06:23:13;;;;;;;;;;;1.90;99.90;;;;;;5002591;28;19933;-77
2024/01/12 06:25:39;;;;;;;;;;;1.90;99.90;;;;;;4983870;28;19925;-77
2024/01/12 06:28:05;;;;;;;;;;;1.90;99.90;;;;;;5001088;28;19932;-77
2024/01/12 06:30:31;;;;;;;;;;;2.00;99.90;;;;;;4953972;28;19976;-77
2024/01/12 06:32:58;;;;;;;;;;;1.90;99.90;;;;;;4975228;28;20005;-77
2024/01/12 06:35:24;;;;;;;;;;;2.00;99.90;;;;;;4968115;28;19929;-77
2024/01/12 06:37:50;;;;;;;;;;;2.00;99.90;;;;;;4985463;28;21097;-76
2024/01/12 06:40:16;;;;;;;;;;;2.00;99.90;;;;;;4979902;28;20514;-76
2024/01/12 06:42:42;;;;;;;;;;;1.90;99.90;;;;;;4981443;28;19944;-76
2024/01/12 06:45:10;;;;;;;;;;;1.90;99.90;;;;;;4964537;28;19952;-76
2024/01/12 06:47:36;;;;;;;;;;;1.90;99.90;;;;;;4984644;28;20907;-76
2024/01/12 06:50:02;;;;;;;;;;;2.00;99.90;;;;;;4950817;28;20240;-77
2024/01/12 06:52:31;;;;;;;;;;;1.90;99.90;;;;;;4983150;28;19924;-76
2024/01/12 06:54:57;;;;;;;;;;;2.00;99.90;;;;;;4967377;28;19996;-76
2024/01/12 06:57:23;;;;;;;;;;;1.90;99.90;;;;;;4970098;28;20023;-76
2024/01/12 06:59:49;;;;;;;;;;;2.00;99.90;;;;;;4975345;28;19932;-77
2024/01/12 07:02:16;;;;;;;;;;;2.00;99.90;;;;;;4988428;28;19933;-76
2024/01/12 07:04:41;;;;;;;;;;;2.00;99.90;;;;;;4971801;28;19933;-76
2024/01/12 07:07:09;;;;;;;;;;;2.00;99.90;;;;;;4980779;28;19952;-75
2024/01/12 07:09:35;;;;;;;;;;;2.00;99.90;;;;;;4962513;28;19936;-76
2024/01/12 07:12:01;;;;;;;;;;;2.00;99.90;;;;;;4991671;28;19940;-78
2024/01/12 07:14:27;;;;;;;;;;;2.10;99.90;;;;;;4963316;28;19996;-77
2024/01/12 07:16:53;;;;;;;;;;;2.00;99.90;;;;;;4974091;28;20008;-76
2024/01/12 07:19:19;;;;;;;;;;;2.00;99.90;;;;;;4984500;28;20085;-77
2024/01/12 07:21:45;;;;;;;;;;;2.00;99.90;;;;;;4979525;28;19925;-77
2024/01/12 07:24:11;;;;;;;;;;;2.00;99.90;;;;;;4987886;28;20315;-76
2024/01/12 07:26:37;;;;;;;;;;;2.00;99.90;;;;;;5012395;28;19925;-77
2024/01/12 07:29:03;;;;;;;;;;;2.00;99.90;;;;;;4988920;28;19929;-77
2024/01/12 07:31:30;;;;;;;;;;;2.00;99.90;;;;;;4984532;28;19923;-77
2024/01/12 07:33:56;;;;;;;;;;;2.10;99.90;;;;;;4960598;28;19940;-78
2024/01/12 07:36:21;;;;;;;;;;;2.00;99.90;;;;;;4996099;28;20438;-76
2024/01/12 07:38:47;;;;;;;;;;;2.00;99.90;;;;;;4967802;28;19925;-77
2024/01/12 07:41:13;;;;;;;;;;;2.10;99.90;;;;;;4984975;28;20434;-76
2024/01/12 07:43:39;;;;;;;;;;;2.10;99.90;;;;;;4953418;28;19933;-77
2024/01/12 07:46:05;;;;;;;;;;;2.10;99.90;;;;;;4994143;28;19931;-77
2024/01/12 07:48:31;;;;;;;;;;;2.10;99.90;;;;;;4960163;28;19925;-77
2024/01/12 07:50:57;;;;;;;;;;;2.10;99.90;;;;;;4991614;28;20550;-78
2024/01/12 07:53:23;;;;;;;;;;;2.10;99.90;;;;;;5018165;28;19936;-77
2024/01/12 07:55:52;;;;;;;;;;;2.20;99.90;;;;;;4970648;28;19931;-77
2024/01/12 07:58:19;;;;;;;;;;;2.20;99.90;;;;;;4970206;28;19940;-77
2024/01/12 08:00:45;;;;;;;;;;;2.10;99.90;;;;;;4985772;28;19932;-77
2024/01/12 08:03:11;;;;;;;;;;;2.20;99.90;;;;;;5001295;28;19936;-77
2024/01/12 08:05:37;;;;;;;;;;;2.20;99.90;;;;;;4966931;28;20011;-78
2024/01/12 08:08:04;;;;;;;;;;;2.30;99.90;;;;;;4982058;28;20418;-78
2024/01/12 08:10:29;;;;;;;;;;;2.30;99.90;;;;;;4951360;28;20491;-78
2024/01/12 08:12:55;;;;;;;;;;;2.40;99.90;;;;;;4999779;28;19932;-78
2024/01/12 08:15:21;;;;;;;;;;;2.50;99.90;;;;;;4985828;28;19924;-77
2024/01/12 08:17:47;;;;;;;;;;;2.50;99.90;;;;;;4982923;28;19977;-78
2024/01/12 08:20:13;;;;;;;;;;;2.50;99.90;;;;;;4980389;28;19929;-78
2024/01/12 08:22:39;;;;;;;;;;;2.50;99.90;;;;;;5002026;28;19939;-78
2024/01/12 08:25:05;;;;;;;;;;;2.50;99.90;;;;;;4972042;28;19934;-76
2024/01/12 08:27:31;;;;;;;;;;;2.60;99.90;;;;;;5014576;28;19925;-77
2024/01/12 08:29:57;;;;;;;;;;;2.60;99.90;;;;;;4973172;28;19925;-77
2024/01/12 08:32:23;;;;;;;;;;;2.60;99.90;;;;;;4972212;28;19929;-77
2024/01/12 08:34:49;;;;;;;;;;;2.60;99.90;;;;;;4955926;28;19931;-77
2024/01/12 08:37:15;;;;;;;;;;;2.60;99.90;;;;;;4983179;28;19944;-77
2024/01/12 08:39:41;;;;;;;;;;;2.60;99.90;;;;;;4955848;28;19925;-77
2024/01/12 08:42:07;;;;;;;;;;;2.60;99.90;;;;;;5000862;28;20613;-77
2024/01/12 08:44:33;;;;;;;;;;;2.60;99.90;;;;;;4988469;28;19939;-78
2024/01/12 08:46:59;;;;;;;;;;;2.60;99.90;;;;;;5004149;28;19925;-77
2024/01/12 08:49:25;;;;;;;;;;;2.60;99.90;;;;;;4966546;28;20465;-77
2024/01/12 08:51:54;;;;;;;;;;;2.60;99.90;;;;;;4992343;28;20674;-76
2024/01/12 08:54:19;;;;;;;;;;;2.60;99.90;;;;;;4982452;28;19924;-76
2024/01/12 08:56:45;;;;;;;;;;;2.70;99.90;;;;;;4993350;28;19951;-76
2024/01/12 08:59:11;;;;;;;;;;;2.70;99.90;;;;;;4984802;28;20554;-76
2024/01/12 09:01:37;;;;;;;;;;;2.70;99.90;;;;;;4977795;28;20193;-76
2024/01/12 09:04:03;;;;;;;;;;;2.80;99.90;;;;;;4960839;28;20248;-77
2024/01/12 09:06:29;;;;;;;;;;;2.80;99.90;;;;;;4995650;28;21039;-77
2024/01/12 09:08:55;;;;;;;;;;;2.80;99.90;;;;;;4955575;28;19939;-75
2024/01/12 09:11:22;;;;;;;;;;;2.90;99.90;;;;;;5011689;28;19925;-76
2024/01/12 09:13:48;;;;;;;;;;;2.90;99.90;;;;;;4958230;28;19925;-75
2024/01/12 09:16:15;;;;;;;;;;;2.90;99.90;;;;;;4997152;28;20482;-76
2024/01/12 09:18:43;;;;;;;;;;;3.00;99.90;;;;;;4959410;28;20554;-76
2024/01/12 09:21:14;;;;;;;;;;;3.10;99.90;;;;;;4999204;28;19936;-76
2024/01/12 09:23:42;;;;;;;;;;;3.10;99.90;;;;;;4943761;28;19929;-76
2024/01/12 09:26:09;;;;;;;;;;;3.20;99.90;;;;;;5018880;28;20972;-76
2024/01/12 09:28:38;;;;;;;;;;;3.30;99.90;;;;;;4952312;28;19924;-75
2024/01/12 09:31:05;;;;;;;;;;;3.40;99.90;;;;;;4982963;28;20765;-75
2024/01/12 09:33:31;;;;;;;;;;;3.40;99.90;;;;;;4962795;28;20447;-75
2024/01/12 09:35:57;;;;;;;;;;;3.50;99.90;;;;;;4998704;28;20497;-75
2024/01/12 09:38:23;;;;;;;;;;;3.50;99.90;;;;;;4985328;28;19932;-75
2024/01/12 09:40:49;;;;;;;;;;;3.60;99.90;;;;;;4988057;28;19936;-76
2024/01/12 09:43:15;;;;;;;;;;;3.60;99.90;;;;;;5004011;28;20214;-75
2024/01/12 09:45:42;;;;;;;;;;;3.70;99.90;;;;;;4954679;28;20429;-75
2024/01/12 09:48:08;;;;;;;;;;;3.70;99.90;;;;;;5003119;28;19925;-75
2024/01/12 09:50:34;;;;;;;;;;;3.70;99.90;;;;;;4972982;28;19928;-74
2024/01/12 09:53:00;;;;;;;;;;;3.70;99.90;;;;;;4987228;28;20568;-75
2024/01/12 09:55:26;;;;;;;;;;;3.80;99.90;;;;;;4970241;28;19925;-75
2024/01/12 09:57:52;;;;;;;;;;;3.80;99.90;;;;;;4999426;28;21082;-77
2024/01/12 10:00:19;;;;;;;;;;;3.90;99.90;;;;;;4964851;28;19936;-74
2024/01/12 10:02:45;;;;;;;;;;;3.90;99.90;;;;;;4985563;28;20541;-74
2024/01/12 10:05:11;;;;;;;;;;;3.90;99.90;;;;;;4975458;28;20056;-74
2024/01/12 10:07:38;;;;;;;;;;;4.00;99.90;;;;;;4984947;28;19960;-74
2024/01/12 10:10:05;;;;;;;;;;;4.00;99.90;;;;;;4965108;28;19935;-75
2024/01/12 10:12:31;;;;;;;;;;;4.10;99.90;;;;;;4984152;28;19924;-75
2024/01/12 10:15:00;;;;;;;;;;;4.10;99.90;;;;;;4954258;28;19939;-74
2024/01/12 10:17:26;;;;;;;;;;;4.20;99.90;;;;;;4983625;28;20437;-74
2024/01/12 10:19:52;;;;;;;;;;;4.30;99.90;;;;;;4974801;28;19924;-74
2024/01/12 10:22:18;;;;;;;;;;;4.30;99.90;;;;;;4988679;28;19931;-74
2024/01/12 10:24:44;;;;;;;;;;;4.30;99.90;;;;;;4954454;28;20342;-73
2024/01/12 10:27:12;;;;;;;;;;;4.30;99.90;;;;;;5000217;28;19960;-73
2024/01/12 10:29:38;;;;;;;;;;;4.40;99.90;;;;;;4980990;28;19925;-73
2024/01/12 10:32:04;;;;;;;;;;;4.40;99.90;;;;;;5006353;28;19928;-73
2024/01/12 10:34:33;;;;;;;;;;;4.40;99.90;;;;;;4948899;28;20972;-73
2024/01/12 10:36:59;;;;;;;;;;;4.50;99.90;;;;;;4997521;28;19925;-74
2024/01/12 10:39:27;;;;;;;;;;;4.50;99.90;;;;;;4979865;28;19932;-74
2024/01/12 10:41:56;;;;;;;;;;;4.50;99.90;;;;;;4990042;28;19936;-73
2024/01/12 10:44:26;;;;;;;;;;;4.40;99.90;;;;;;4965231;28;19995;-74
2024/01/12 10:46:57;;;;;;;;;;;4.40;99.90;;;;;;4971395;28;20609;-74
2024/01/12 10:49:26;;;;;;;;;;;4.40;99.90;;;;;;4978577;28;19928;-74
2024/01/12 10:52:07;;;;;;;;;;;4.50;99.90;;;;;;5006447;28;19936;-74
2024/01/12 10:54:38;;;;;;;;;;;4.50;99.90;;;;;;4969490;28;19924;-74
2024/01/12 10:57:04;;;;;;;;;;;4.50;99.90;;;;;;4987290;28;20314;-74
2024/01/12 10:59:30;;;;;;;;;;;4.50;99.90;;;;;;4972752;28;20588;-74
2024/01/12 11:01:56;;;;;;;;;;;4.60;99.90;;;;;;5001182;28;20343;-73
2024/01/12 11:04:23;;;;;;;;;;;4.60;99.90;;;;;;4940911;28;21120;-73
2024/01/12 11:06:55;;;;;;;;;;;4.60;99.90;;;;;;4961929;28;19925;-74
2024/01/12 11:09:21;;;;;;;;;;;4.60;99.90;;;;;;4957379;28;20682;-73
2024/01/12 11:11:51;;;;;;;;;;;4.50;99.90;;;;;;4991026;28;21344;-73
2024/01/12 11:14:17;;;;;;;;;;;4.60;99.90;;;;;;4955128;28;19929;-73
2024/01/12 11:16:44;;;;;;;;;;;4.50;99.90;;;;;;4982446;28;19924;-73
2024/01/12 11:19:13;;;;;;;;;;;4.60;99.90;;;;;;4976903;28;19924;-72
2024/01/12 11:21:41;;;;;;;;;;;4.70;99.90;;;;;;5008649;28;20528;-73
2024/01/12 11:24:08;;;;;;;;;;;4.70;99.90;;;;;;4985242;28;19928;-73
2024/01/12 11:26:34;;;;;;;;;;;4.70;99.90;;;;;;5009832;28;20402;-73
2024/01/12 11:29:00;;;;;;;;;;;4.80;99.90;;;;;;4970651;28;19929;-73
2024/01/12 11:31:26;;;;;;;;;;;4.80;99.90;;;;;;5011288;28;20013;-73
2024/01/12 11:34:00;;;;;;;;;;;4.80;99.90;;;;;;4971462;28;19929;-73
2024/01/12 11:36:27;;;;;;;;;;;4.90;99.90;;;;;;5012772;28;19924;-73
2024/01/12 11:38:55;;;;;;;;;;;4.80;99.90;;;;;;4971483;28;19924;-72
2024/01/12 11:41:26;;;;;;;;;;;4.80;99.90;;;;;;4994481;28;19931;-72
2024/01/12 11:43:52;;;;;;;;;;;4.80;99.90;;;;;;4969224;28;21050;-72
2024/01/12 11:46:18;;;;;;;;;;;4.80;99.90;;;;;;4981644;28;19925;-72
2024/01/12 11:48:44;;;;;;;;;;;4.80;99.90;;;;;;4970506;28;20478;-72
2024/01/12 11:51:10;;;;;;;;;;;4.80;99.90;;;;;;4996097;28;19924;-71
2024/01/12 11:53:37;;;;;;;;;;;4.80;99.90;;;;;;4942139;28;19925;-72
2024/01/12 11:56:03;;;;;;;;;;;4.70;99.90;;;;;;4982615;28;19925;-72
2024/01/12 11:58:31;;;;;;;;;;;4.70;99.90;;;;;;4969974;28;19929;-72
2024/01/12 12:00:57;;;;;;;;;;;4.70;99.90;;;;;;4986616;28;20414;-71
2024/01/12 12:03:23;;;;;;;;;;;4.70;99.90;;;;;;4984393;28;19944;-72
2024/01/12 12:05:49;;;;;;;;;;;4.80;99.90;;;;;;4965913;28;20461;-72
2024/01/12 12:08:15;;;;;;;;;;;4.80;99.90;;;;;;4982389;28;19925;-72
2024/01/12 12:10:41;;;;;;;;;;;4.80;99.90;;;;;;4965378;28;20064;-72
2024/01/12 12:13:10;;;;;;;;;;;4.80;99.90;;;;;;4981687;28;19932;-72
2024/01/12 12:15:36;;;;;;;;;;;4.90;99.90;;;;;;4987910;28;20568;-72
2024/01/12 12:18:02;;;;;;;;;;;4.80;99.90;;;;;;5005137;28;19924;-72
2024/01/12 12:20:28;;;;;;;;;;;4.80;99.90;;;;;;4974160;28;20441;-72
2024/01/12 12:22:56;;;;;;;;;;;4.90;99.90;;;;;;4983928;28;19929;-73
2024/01/12 12:25:22;;;;;;;;;;;4.90;99.90;;;;;;4974606;28;19931;-72
2024/01/12 12:27:48;;;;;;;;;;;4.90;99.90;;;;;;4966020;28;20814;-72
2024/01/12 12:30:15;;;;;;;;;;;4.90;99.90;;;;;;4982306;28;19932;-72
2024/01/12 12:32:42;;;;;;;;;;;4.90;99.90;;;;;;5005489;28;19936;-72
2024/01/12 12:35:17;;;;;;;;;;;4.90;99.90;;;;;;4984240;28;19924;-72
2024/01/12 12:37:46;;;;;;;;;;;4.90;99.90;;;;;;5004315;28;19939;-72
2024/01/12 12:40:13;;;;;;;;;;;4.90;99.90;;;;;;4974288;28;21292;-72
2024/01/12 12:42:39;;;;;;;;;;;4.90;99.90;;;;;;5000491;28;19932;-73
2024/01/12 12:45:06;;;;;;;;;;;4.90;99.90;;;;;;4984138;28;19935;-73
2024/01/12 12:47:32;;;;;;;;;;;4.90;99.90;;;;;;4985243;28;20170;-72
2024/01/12 12:49:58;;;;;;;;;;;4.90;99.90;;;;;;4983743;28;19931;-72
2024/01/12 12:52:24;;;;;;;;;;;4.90;99.90;;;;;;5005131;28;19928;-72
2024/01/12 12:54:50;;;;;;;;;;;4.90;99.90;;;;;;4982674;28;19924;-72
2024/01/12 12:57:16;;;;;;;;;;;4.90;99.90;;;;;;5005866;28;19925;-72
2024/01/12 12:59:43;;;;;;;;;;;4.90;99.90;;;;;;4982450;28;19924;-72
2024/01/12 13:02:10;;;;;;;;;;;4.90;99.90;;;;;;5009512;28;19925;-73
2024/01/12 13:04:36;;;;;;;;;;;4.90;99.90;;;;;;4988490;28;19929;-72
2024/01/12 13:07:02;;;;;;;;;;;4.80;99.90;;;;;;5000867;28;19931;-72
2024/01/12 13:09:29;;;;;;;;;;;4.80;99.90;;;;;;4979344;28;19924;-72
2024/01/12 13:11:55;;;;;;;;;;;4.80;99.90;;;;;;5008025;28;19924;-72
2024/01/12 13:14:22;;;;;;;;;;;4.80;99.90;;;;;;4971490;28;19953;-71
2024/01/12 13:16:49;;;;;;;;;;;4.80;99.90;;;;;;5015197;28;20023;-73
2024/01/12 13:19:15;;;;;;;;;;;4.80;99.90;;;;;;4981158;28;20493;-73
2024/01/12 13:21:41;;;;;;;;;;;4.80;99.90;;;;;;4992816;28;19932;-72
2024/01/12 13:24:09;;;;;;;;;;;4.80;99.90;;;;;;4978693;28;20034;-72
2024/01/12 13:26:35;;;;;;;;;;;4.80;99.90;;;;;;5009385;28;19928;-72
2024/01/12 13:29:04;;;;;;;;;;;4.80;99.90;;;;;;4986631;28;19924;-72
2024/01/12 13:31:33;;;;;;;;;;;4.80;99.90;;;;;;5000688;28;19936;-72
2024/01/12 13:33:59;;;;;;;;;;;4.80;99.90;;;;;;4972947;28;19940;-72
2024/01/12 13:36:25;;;;;;;;;;;4.80;99.90;;;;;;4980350;28;21049;-71
2024/01/12 13:38:53;;;;;;;;;;;4.80;99.90;;;;;;4970155;28;20013;-72
2024/01/12 13:41:19;;;;;;;;;;;4.80;99.90;;;;;;5006361;28;19924;-72
2024/01/12 13:43:45;;;;;;;;;;;4.80;99.90;;;;;;4954947;28;19933;-72
2024/01/12 13:46:13;;;;;;;;;;;4.80;99.90;;;;;;4978687;28;19925;-72
2024/01/12 13:48:39;;;;;;;;;;;4.80;99.90;;;;;;4973136;28;19924;-72
2024/01/12 13:51:05;;;;;;;;;;;4.90;99.90;;;;;;5015970;28;19929;-72
2024/01/12 13:53:31;;;;;;;;;;;4.80;99.90;;;;;;4959050;28;19932;-72
2024/01/12 13:55:57;;;;;;;;;;;4.90;99.90;;;;;;4961206;28;20977;-72
2024/01/12 13:58:24;;;;;;;;;;;4.90;99.90;;;;;;5002378;28;19925;-72
2024/01/12 14:00:51;;;;;;;;;;;4.90;99.90;;;;;;4985223;28;19935;-72
2024/01/12 14:03:17;;;;;;;;;;;5.10;99.90;;;;;;5019903;28;19940;-72
2024/01/12 14:05:43;;;;;;;;;;;5.10;99.90;;;;;;4968021;28;21015;-72
2024/01/12 14:08:11;;;;;;;;;;;5.10;99.90;;;;;;4983010;28;20017;-72
2024/01/12 14:10:37;;;;;;;;;;;5.00;99.90;;;;;;4970266;28;21046;-72
2024/01/12 14:13:04;;;;;;;;;;;5.00;99.90;;;;;;5003335;28;19925;-72
2024/01/12 14:15:30;;;;;;;;;;;4.90;99.90;;;;;;4985504;28;21062;-71
2024/01/12 14:17:56;;;;;;;;;;;5.00;99.90;;;;;;4982248;28;19928;-71
2024/01/12 14:20:23;;;;;;;;;;;4.90;99.90;;;;;;4984579;28;20433;-72
2024/01/12 14:22:49;;;;;;;;;;;4.90;99.90;;;;;;5000349;28;19924;-72
2024/01/12 14:25:15;;;;;;;;;;;4.80;99.90;;;;;;4979853;28;19932;-71